^^
Station Historical Data
Daily Summary for October 6, 2021 Units:  English    Metric   Both
Daily Weekly Monthly Yearly
  High: Low: Average:
Temperature: 67.7 °F 59.7 °F 62.9 °F
Dew Point: 62.2 °F 56.2 °F 59 °F
Humidity: 93% 78% 87%
Wind Speed: 3mph 0mph 1.8mph
Wind Gust: 6mph - -
Wind- - East
Pressure: 30.33 in 30.24 in -
Precipitation: 0.00 in    
 
 
Tabular Data for October 6, 2021
Time Temperature Dew Point Pressure Wind Wind Speed Wind Gust Humidity Rainfall Rate (Hourly) solar
00:00 59.8 °F 56.2 °F 30.29 in ENE 1 mph 3 mph 88% 0.00 in 0 W/m2
00:05 59.8 °F 56.6 °F 30.29 in East 1 mph 3 mph 89% 0.00 in 0 W/m2
00:10 59.7 °F 56.5 °F 30.29 in ENE 1 mph 1 mph 89% 0.00 in 0 W/m2
00:15 59.7 °F 56.5 °F 30.29 in NE 1 mph 2 mph 89% 0.00 in 0 W/m2
00:20 59.7 °F 56.5 °F 30.28 in SSE 1 mph 1 mph 89% 0.00 in 0 W/m2
00:25 59.7 °F 56.5 °F 30.29 in ENE 1 mph 2 mph 89% 0.00 in 0 W/m2
00:30 59.7 °F 56.8 °F 30.28 in ENE 1 mph 2 mph 90% 0.00 in 0 W/m2
00:35 59.7 °F 56.8 °F 30.29 in NE 1 mph 2 mph 90% 0.00 in 0 W/m2
00:40 59.7 °F 56.8 °F 30.28 in NE 1 mph 1 mph 90% 0.00 in 0 W/m2
00:45 59.8 °F 56.9 °F 30.28 in ENE 1 mph 1 mph 90% 0.00 in 0 W/m2
00:50 59.8 °F 56.9 °F 30.28 in East 1 mph 1 mph 90% 0.00 in 0 W/m2
00:55 59.9 °F 57 °F 30.28 in ENE 1 mph 1 mph 90% 0.00 in 0 W/m2
01:00 59.8 °F 57.2 °F 30.28 in East 1 mph 2 mph 91% 0.00 in 0 W/m2
01:05 59.9 °F 57.3 °F 30.28 in North 1 mph 2 mph 91% 0.00 in 0 W/m2
01:10 59.9 °F 57.3 °F 30.28 in East 1 mph 2 mph 91% 0.00 in 0 W/m2
01:15 59.9 °F 57.3 °F 30.28 in NE 1 mph 2 mph 91% 0.00 in 0 W/m2
01:20 59.9 °F 57.3 °F 30.28 in ESE 1 mph 1 mph 91% 0.00 in 0 W/m2
01:25 60 °F 57.4 °F 30.28 in East 1 mph 1 mph 91% 0.00 in 0 W/m2
01:30 60 °F 57.4 °F 30.28 in ENE 2 mph 2 mph 91% 0.00 in 0 W/m2
01:35 60.1 °F 57.5 °F 30.28 in NE 2 mph 2 mph 91% 0.00 in 0 W/m2
01:40 60.1 °F 57.5 °F 30.28 in ENE 2 mph 2 mph 91% 0.00 in 0 W/m2
01:45 60.1 °F 57.5 °F 30.28 in NNE 1 mph 2 mph 91% 0.00 in 0 W/m2
01:50 60.2 °F 57.6 °F 30.28 in ESE 1 mph 1 mph 91% 0.00 in 0 W/m2
01:55 60.2 °F 57.6 °F 30.29 in NE 1 mph 1 mph 91% 0.00 in 0 W/m2
02:00 60.3 °F 57.7 °F 30.28 in ENE 1 mph 1 mph 91% 0.00 in 0 W/m2
02:05 60.4 °F 57.8 °F 30.29 in East 1 mph 2 mph 91% 0.00 in 0 W/m2
02:10 60.4 °F 57.8 °F 30.29 in NE 1 mph 3 mph 91% 0.00 in 0 W/m2
02:15 60.4 °F 57.8 °F 30.29 in ESE 2 mph 3 mph 91% 0.00 in 0 W/m2
02:20 60.4 °F 58.1 °F 30.29 in ENE 2 mph 2 mph 92% 0.00 in 0 W/m2
02:25 60.5 °F 58.2 °F 30.29 in ENE 2 mph 4 mph 92% 0.00 in 0 W/m2
02:30 60.5 °F 58.2 °F 30.29 in NE 2 mph 2 mph 92% 0.00 in 0 W/m2
02:35 60.5 °F 58.2 °F 30.29 in ENE 2 mph 2 mph 92% 0.00 in 0 W/m2
02:40 60.5 °F 58.2 °F 30.29 in NE 2 mph 2 mph 92% 0.00 in 0 W/m2
02:45 60.4 °F 57.8 °F 30.29 in NNE 2 mph 2 mph 91% 0.00 in 0 W/m2
02:50 60.4 °F 57.8 °F 30.29 in East 2 mph 4 mph 91% 0.00 in 0 W/m2
02:55 60.4 °F 57.8 °F 30.29 in ENE 2 mph 4 mph 91% 0.00 in 0 W/m2
03:00 60.4 °F 58.1 °F 30.29 in SE 2 mph 3 mph 92% 0.00 in 0 W/m2
03:05 60.4 °F 58.1 °F 30.29 in NE 2 mph 3 mph 92% 0.00 in 0 W/m2
03:10 60.4 °F 58.1 °F 30.29 in ENE 2 mph 2 mph 92% 0.00 in 0 W/m2
03:15 60.4 °F 58.1 °F 30.29 in NW 1 mph 2 mph 92% 0.00 in 0 W/m2
03:20 60.4 °F 58.1 °F 30.29 in NE 1 mph 2 mph 92% 0.00 in 0 W/m2
03:25 60.4 °F 58.1 °F 30.29 in ENE 1 mph 2 mph 92% 0.00 in 0 W/m2
03:30 60.4 °F 58.1 °F 30.28 in North 1 mph 1 mph 92% 0.00 in 0 W/m2
03:35 60.4 °F 58.1 °F 30.28 in NNW 1 mph 1 mph 92% 0.00 in 0 W/m2
03:40 60.3 °F 58 °F 30.28 in ENE 1 mph 1 mph 92% 0.00 in 0 W/m2
03:45 60.3 °F 58 °F 30.28 in East 1 mph 1 mph 92% 0.00 in 0 W/m2
03:50 60.3 °F 58 °F 30.28 in ENE 1 mph 1 mph 92% 0.00 in 0 W/m2
03:55 60.3 °F 58 °F 30.28 in NE 1 mph 2 mph 92% 0.00 in 0 W/m2
04:00 60.3 °F 58 °F 30.28 in NE 1 mph 1 mph 92% 0.00 in 0 W/m2
04:05 60.3 °F 58 °F 30.28 in East 1 mph 1 mph 92% 0.00 in 0 W/m2
04:10 60.3 °F 58 °F 30.28 in East 1 mph 1 mph 92% 0.00 in 0 W/m2
04:15 60.3 °F 58 °F 30.28 in ENE 1 mph 1 mph 92% 0.00 in 0 W/m2
04:20 60.3 °F 58 °F 30.28 in NNW 1 mph 1 mph 92% 0.00 in 0 W/m2
04:25 60.3 °F 58 °F 30.28 in West 1 mph 1 mph 92% 0.00 in 0 W/m2
04:30 60.4 °F 58.1 °F 30.28 in NE 1 mph 1 mph 92% 0.00 in 0 W/m2
04:35 60.3 °F 58 °F 30.28 in ENE 1 mph 2 mph 92% 0.00 in 0 W/m2
04:40 60.4 °F 58.1 °F 30.28 in East 1 mph 1 mph 92% 0.00 in 0 W/m2
04:45 60.4 °F 58.1 °F 30.28 in NE 1 mph 1 mph 92% 0.00 in 0 W/m2
04:50 60.4 °F 58.1 °F 30.28 in East 1 mph 1 mph 92% 0.00 in 0 W/m2
04:55 60.3 °F 58 °F 30.28 in NNE 1 mph 1 mph 92% 0.00 in 0 W/m2
05:00 60.3 °F 58 °F 30.29 in ENE 1 mph 1 mph 92% 0.00 in 0 W/m2
05:05 60.4 °F 58.1 °F 30.29 in NE 1 mph 1 mph 92% 0.00 in 0 W/m2
05:10 60.4 °F 58.1 °F 30.29 in ENE 1 mph 1 mph 92% 0.00 in 0 W/m2
05:15 60.4 °F 58.1 °F 30.29 in ENE 1 mph 2 mph 92% 0.00 in 0 W/m2
05:20 60.4 °F 58.1 °F 30.29 in NNE 1 mph 1 mph 92% 0.00 in 0 W/m2
05:25 60.4 °F 58.1 °F 30.29 in NE 1 mph 1 mph 92% 0.00 in 0 W/m2
05:30 60.4 °F 58.1 °F 30.29 in NE 1 mph 1 mph 92% 0.00 in 0 W/m2
05:35 60.4 °F 58.1 °F 30.29 in NE 1 mph 1 mph 92% 0.00 in 0 W/m2
05:40 60.4 °F 58.1 °F 30.29 in East 1 mph 1 mph 92% 0.00 in 0 W/m2
05:45 60.4 °F 58.1 °F 30.29 in NE 1 mph 1 mph 92% 0.00 in 0 W/m2
05:50 60.4 °F 58.1 °F 30.29 in ENE 1 mph 2 mph 92% 0.00 in 0 W/m2
05:55 60.4 °F 58.1 °F 30.29 in ENE 1 mph 2 mph 92% 0.00 in 0 W/m2
06:00 60.4 °F 58.1 °F 30.30 in East 1 mph 1 mph 92% 0.00 in 0 W/m2
06:05 60.4 °F 58.1 °F 30.30 in Calm   1 mph 92% 0.00 in 0 W/m2
06:10 60.5 °F 58.2 °F 30.30 in SE 1 mph 1 mph 92% 0.00 in 0 W/m2
06:15 60.7 °F 58.4 °F 30.29 in SE 1 mph 2 mph 92% 0.00 in 0 W/m2
06:20 60.8 °F 58.8 °F 30.30 in SE 1 mph 1 mph 93% 0.00 in 0 W/m2
06:25 60.8 °F 58.8 °F 30.30 in ESE 2 mph 2 mph 93% 0.00 in 0 W/m2
06:30 60.9 °F 58.9 °F 30.30 in SSE 2 mph 2 mph 93% 0.00 in 0 W/m2
06:35 60.9 °F 58.9 °F 30.30 in East 1 mph 2 mph 93% 0.00 in 0 W/m2
06:40 60.9 °F 58.9 °F 30.30 in SE 1 mph 1 mph 93% 0.00 in 0 W/m2
06:45 61 °F 59 °F 30.30 in ESE 2 mph 2 mph 93% 0.00 in 0 W/m2
06:50 61 °F 59 °F 30.30 in ENE 2 mph 2 mph 93% 0.00 in 0 W/m2
06:55 61 °F 59 °F 30.30 in East 2 mph 2 mph 93% 0.00 in 0 W/m2
07:00 61 °F 59 °F 30.30 in SE 2 mph 2 mph 93% 0.00 in 0 W/m2
07:05 60.9 °F 58.6 °F 30.30 in SE 2 mph 2 mph 92% 0.00 in 0 W/m2
07:10 60.9 °F 58.6 °F 30.31 in SE 2 mph 2 mph 92% 0.00 in 0 W/m2
07:15 60.8 °F 58.5 °F 30.31 in SE 2 mph 2 mph 92% 0.00 in 0 W/m2
07:20 60.8 °F 58.5 °F 30.31 in ESE 2 mph 2 mph 92% 0.00 in 0 W/m2
07:25 60.9 °F 58.6 °F 30.31 in ESE 1 mph 2 mph 92% 0.00 in 0 W/m2
07:30 61 °F 59 °F 30.31 in SE 2 mph 2 mph 93% 0.00 in 0 W/m2
07:35 61.1 °F 58.8 °F 30.31 in ESE 1 mph 2 mph 92% 0.00 in 0 W/m2
07:40 61.1 °F 58.8 °F 30.31 in NE 1 mph 1 mph 92% 0.00 in 0 W/m2
07:45 61.1 °F 58.8 °F 30.31 in ESE 2 mph 2 mph 92% 0.00 in 5 W/m2
07:50 61.1 °F 58.8 °F 30.31 in ESE 2 mph 2 mph 92% 0.00 in 7 W/m2
07:55 61 °F 58.7 °F 30.32 in East 2 mph 2 mph 92% 0.00 in 11 W/m2
08:00 61 °F 58.7 °F 30.32 in ESE 2 mph 2 mph 92% 0.00 in 14 W/m2
08:05 61.1 °F 58.8 °F 30.32 in SE 2 mph 2 mph 92% 0.00 in 14 W/m2
08:10 61.1 °F 58.8 °F 30.32 in NE 2 mph 2 mph 92% 0.00 in 19 W/m2
08:15 61.2 °F 58.9 °F 30.32 in East 1 mph 2 mph 92% 0.00 in 23 W/m2
08:20 61.2 °F 58.9 °F 30.32 in SSE 1 mph 2 mph 92% 0.00 in 30 W/m2
08:25 61.1 °F 58.8 °F 30.32 in NE 1 mph 2 mph 92% 0.00 in 33 W/m2
08:30 61.2 °F 58.6 °F 30.32 in SE 1 mph 1 mph 91% 0.00 in 39 W/m2
08:35 61.2 °F 58.6 °F 30.32 in SE 1 mph 1 mph 91% 0.00 in 42 W/m2
08:40 61.2 °F 58.6 °F 30.32 in SE 1 mph 1 mph 91% 0.00 in 42 W/m2
08:45 61.3 °F 58.7 °F 30.32 in ESE 1 mph 1 mph 91% 0.00 in 49 W/m2
08:50 61.2 °F 58.6 °F 30.32 in SSE 1 mph 1 mph 91% 0.00 in 51 W/m2
08:55 61.3 °F 58.7 °F 30.32 in SSE 1 mph 1 mph 91% 0.00 in 60 W/m2
09:00 61.3 °F 58.7 °F 30.32 in ESE 2 mph 2 mph 91% 0.00 in 62 W/m2
09:05 61.3 °F 58.7 °F 30.32 in East 2 mph 2 mph 91% 0.00 in 63 W/m2
09:10 61.3 °F 58.3 °F 30.32 in SE 1 mph 1 mph 90% 0.00 in 67 W/m2
09:15 61.4 °F 58.4 °F 30.32 in ESE 1 mph 3 mph 90% 0.00 in 69 W/m2
09:20 61.4 °F 58.4 °F 30.32 in SSE 2 mph 2 mph 90% 0.00 in 76 W/m2
09:25 61.5 °F 58.5 °F 30.33 in SSE 2 mph 2 mph 90% 0.00 in 81 W/m2
09:30 61.6 °F 58.6 °F 30.32 in ESE 2 mph 2 mph 90% 0.00 in 83 W/m2
09:35 61.6 °F 58.6 °F 30.33 in East 1 mph 2 mph 90% 0.00 in 93 W/m2
09:40 61.8 °F 58.8 °F 30.33 in ESE 1 mph 1 mph 90% 0.00 in 98 W/m2
09:45 61.8 °F 58.8 °F 30.33 in SE 1 mph 2 mph 90% 0.00 in 113 W/m2
09:50 61.9 °F 58.9 °F 30.33 in East 2 mph 2 mph 90% 0.00 in 107 W/m2
09:55 62 °F 59 °F 30.33 in SE 2 mph 2 mph 90% 0.00 in 139 W/m2
10:00 62.1 °F 59.1 °F 30.33 in ESE 2 mph 2 mph 90% 0.00 in 135 W/m2
10:05 62.2 °F 59.2 °F 30.33 in East 2 mph 3 mph 90% 0.00 in 172 W/m2
10:10 62.2 °F 59.2 °F 30.32 in SE 2 mph 2 mph 90% 0.00 in 204 W/m2
10:15 62.5 °F 59.5 °F 30.32 in ESE 2 mph 3 mph 90% 0.00 in 199 W/m2
10:20 62.6 °F 59.6 °F 30.32 in ESE 2 mph 3 mph 90% 0.00 in 190 W/m2
10:25 62.8 °F 59.5 °F 30.32 in NNE 2 mph 3 mph 89% 0.00 in 207 W/m2
10:30 63 °F 59.7 °F 30.32 in SE 2 mph 4 mph 89% 0.00 in 223 W/m2
10:35 63.1 °F 59.8 °F 30.32 in ESE 2 mph 4 mph 89% 0.00 in 225 W/m2
10:40 63.2 °F 59.6 °F 30.32 in SSE 2 mph 2 mph 88% 0.00 in 223 W/m2
10:45 63.4 °F 59.8 °F 30.32 in SE 2 mph 2 mph 88% 0.00 in 234 W/m2
10:50 63.6 °F 60 °F 30.32 in ESE 2 mph 2 mph 88% 0.00 in 260 W/m2
10:55 63.8 °F 59.9 °F 30.32 in East 2 mph 2 mph 87% 0.00 in 257 W/m2
11:00 64 °F 60.1 °F 30.32 in SE 2 mph 6 mph 87% 0.00 in 262 W/m2
11:05 64.2 °F 59.9 °F 30.32 in SE 3 mph 6 mph 86% 0.00 in 237 W/m2
11:10 64.3 °F 60 °F 30.32 in SE 3 mph 3 mph 86% 0.00 in 214 W/m2
11:15 64.5 °F 59.9 °F 30.32 in SSE 3 mph 3 mph 85% 0.00 in 214 W/m2
11:20 64.7 °F 60.1 °F 30.32 in ENE 3 mph 3 mph 85% 0.00 in 200 W/m2
11:25 64.8 °F 60.2 °F 30.32 in SE 3 mph 3 mph 85% 0.00 in 192 W/m2
11:30 64.9 °F 60.3 °F 30.32 in East 2 mph 2 mph 85% 0.00 in 174 W/m2
11:35 64.9 °F 60.3 °F 30.32 in SE 2 mph 3 mph 85% 0.00 in 178 W/m2
11:40 64.9 °F 60.3 °F 30.32 in SE 2 mph 3 mph 85% 0.00 in 155 W/m2
11:45 65 °F 60.4 °F 30.32 in SE 2 mph 3 mph 85% 0.00 in 172 W/m2
11:50 65 °F 60.4 °F 30.32 in SE 2 mph 3 mph 85% 0.00 in 174 W/m2
11:55 65.1 °F 60.5 °F 30.32 in SSE 3 mph 3 mph 85% 0.00 in 211 W/m2
12:00 65.2 °F 60.6 °F 30.32 in South 3 mph 3 mph 85% 0.00 in 227 W/m2
12:05 65.3 °F 60.7 °F 30.32 in SE 2 mph 3 mph 85% 0.00 in 243 W/m2
12:10 65.3 °F 60.7 °F 30.32 in ESE 2 mph 3 mph 85% 0.00 in 279 W/m2
12:15 65.5 °F 60.9 °F 30.31 in ESE 2 mph 3 mph 85% 0.00 in 269 W/m2
12:20 65.5 °F 60.5 °F 30.31 in SE 2 mph 5 mph 84% 0.00 in 264 W/m2
12:25 65.7 °F 60.7 °F 30.31 in East 2 mph 5 mph 84% 0.00 in 276 W/m2
12:30 65.8 °F 60.8 °F 30.31 in ESE 2 mph 2 mph 84% 0.00 in 220 W/m2
12:35 65.9 °F 60.9 °F 30.31 in ESE 2 mph 3 mph 84% 0.00 in 148 W/m2
12:40 66.1 °F 60.8 °F 30.31 in ENE 2 mph 4 mph 83% 0.00 in 137 W/m2
12:45 66.1 °F 60.8 °F 30.31 in East 2 mph 4 mph 83% 0.00 in 134 W/m2
12:50 66.2 °F 60.9 °F 30.31 in East 2 mph 2 mph 83% 0.00 in 165 W/m2
12:55 66.2 °F 60.5 °F 30.30 in East 2 mph 3 mph 82% 0.00 in 160 W/m2
13:00 66.3 °F 60.6 °F 30.30 in SE 2 mph 2 mph 82% 0.00 in 202 W/m2
13:05 66.4 °F 60.7 °F 30.30 in East 2 mph 2 mph 82% 0.00 in 169 W/m2
13:10 66.5 °F 60.8 °F 30.30 in ENE 2 mph 2 mph 82% 0.00 in 146 W/m2
13:15 66.5 °F 60.5 °F 30.30 in SE 2 mph 2 mph 81% 0.00 in 200 W/m2
13:20 66.6 °F 60.6 °F 30.30 in ESE 2 mph 4 mph 81% 0.00 in 176 W/m2
13:25 66.6 °F 60.2 °F 30.29 in East 2 mph 4 mph 80% 0.00 in 176 W/m2
13:30 66.8 °F 60.4 °F 30.29 in ENE 2 mph 2 mph 80% 0.00 in 186 W/m2
13:35 66.8 °F 60.4 °F 30.29 in East 2 mph 2 mph 80% 0.00 in 190 W/m2
13:40 66.9 °F 60.5 °F 30.29 in East 2 mph 3 mph 80% 0.00 in 211 W/m2
13:45 67.1 °F 60.4 °F 30.29 in East 2 mph 3 mph 79% 0.00 in 234 W/m2
13:50 67.1 °F 60 °F 30.29 in NE 2 mph 2 mph 78% 0.00 in 241 W/m2
13:55 67.3 °F 60.6 °F 30.28 in North 2 mph 2 mph 79% 0.00 in 253 W/m2
14:00 67.5 °F 61.8 °F 30.28 in NW 1 mph 3 mph 82% 0.00 in 220 W/m2
14:05 67.7 °F 62 °F 30.28 in ENE 2 mph 3 mph 82% 0.00 in 237 W/m2
14:10 67.6 °F 61.9 °F 30.28 in NNE 2 mph 2 mph 82% 0.00 in 258 W/m2
14:15 67.5 °F 62.2 °F 30.28 in North 2 mph 6 mph 83% 0.00 in 241 W/m2
14:20 67.4 °F 62.1 °F 30.28 in NE 2 mph 2 mph 83% 0.00 in 223 W/m2
14:25 67.3 °F 62 °F 30.27 in SE 2 mph 2 mph 83% 0.00 in 260 W/m2
14:30 67.2 °F 61.9 °F 30.27 in ESE 2 mph 3 mph 83% 0.00 in 230 W/m2
14:35 67.1 °F 61.8 °F 30.27 in ENE 2 mph 3 mph 83% 0.00 in 239 W/m2
14:40 66.9 °F 61.2 °F 30.27 in ENE 2 mph 4 mph 82% 0.00 in 248 W/m2
14:45 66.7 °F 61 °F 30.27 in NNE 2 mph 4 mph 82% 0.00 in 239 W/m2
14:50 66.5 °F 61.2 °F 30.27 in SE 2 mph 2 mph 83% 0.00 in 253 W/m2
14:55 66.5 °F 61.2 °F 30.27 in ENE 2 mph 2 mph 83% 0.00 in 257 W/m2
15:00 66.5 °F 61.5 °F 30.26 in ESE 2 mph 2 mph 84% 0.00 in 230 W/m2
15:05 66.5 °F 61.5 °F 30.26 in ESE 2 mph 2 mph 84% 0.00 in 225 W/m2
15:10 66.5 °F 61.5 °F 30.26 in East 2 mph 3 mph 84% 0.00 in 214 W/m2
15:15 66.4 °F 61.4 °F 30.26 in North 2 mph 3 mph 84% 0.00 in 200 W/m2
15:20 66.4 °F 61.4 °F 30.26 in ESE 2 mph 2 mph 84% 0.00 in 220 W/m2
15:25 66.3 °F 61.3 °F 30.26 in ENE 2 mph 2 mph 84% 0.00 in 234 W/m2
15:30 66.2 °F 61.2 °F 30.26 in NNE 3 mph 3 mph 84% 0.00 in 232 W/m2
15:35 66.2 °F 61.2 °F 30.25 in ENE 3 mph 3 mph 84% 0.00 in 229 W/m2
15:40 66.1 °F 61.1 °F 30.25 in ENE 3 mph 3 mph 84% 0.00 in 237 W/m2
15:45 66.1 °F 61.1 °F 30.25 in North 3 mph 3 mph 84% 0.00 in 220 W/m2
15:50 66.1 °F 61.1 °F 30.25 in NNE 3 mph 3 mph 84% 0.00 in 193 W/m2
15:55 66.1 °F 61.1 °F 30.25 in East 3 mph 5 mph 84% 0.00 in 190 W/m2
16:00 66.1 °F 61.1 °F 30.25 in East 2 mph 2 mph 84% 0.00 in 202 W/m2
16:05 66 °F 61 °F 30.25 in NW 2 mph 2 mph 84% 0.00 in 202 W/m2
16:10 66 °F 61 °F 30.25 in ESE 2 mph 3 mph 84% 0.00 in 172 W/m2
16:15 66 °F 61 °F 30.25 in NE 2 mph 3 mph 84% 0.00 in 171 W/m2
16:20 66 °F 61 °F 30.25 in NE 2 mph 2 mph 84% 0.00 in 165 W/m2
16:25 65.9 °F 60.9 °F 30.25 in NNW 2 mph 3 mph 84% 0.00 in 156 W/m2
16:30 65.8 °F 60.8 °F 30.25 in ESE 2 mph 2 mph 84% 0.00 in 137 W/m2
16:35 65.8 °F 60.8 °F 30.25 in ENE 2 mph 3 mph 84% 0.00 in 135 W/m2
16:40 65.8 °F 60.8 °F 30.25 in NNE 2 mph 2 mph 84% 0.00 in 121 W/m2
16:45 65.6 °F 60.6 °F 30.25 in North 2 mph 2 mph 84% 0.00 in 128 W/m2
16:50 65.7 °F 60.7 °F 30.24 in WNW 2 mph 2 mph 84% 0.00 in 125 W/m2
16:55 65.6 °F 60.6 °F 30.24 in WSW 2 mph 3 mph 84% 0.00 in 128 W/m2
17:00 65.6 °F 60.6 °F 30.24 in North 3 mph 3 mph 84% 0.00 in 137 W/m2
17:05 65.5 °F 60.9 °F 30.24 in NNE 3 mph 5 mph 85% 0.00 in 128 W/m2
17:10 65.4 °F 60.8 °F 30.24 in NW 3 mph 3 mph 85% 0.00 in 127 W/m2
17:15 65.4 °F 60.8 °F 30.24 in SSE 2 mph 3 mph 85% 0.00 in 111 W/m2
17:20 65.3 °F 60.7 °F 30.24 in ESE 2 mph 4 mph 85% 0.00 in 104 W/m2
17:25 65.3 °F 60.7 °F 30.24 in NE 2 mph 4 mph 85% 0.00 in 104 W/m2
17:30 65.2 °F 60.6 °F 30.24 in NNE 2 mph 2 mph 85% 0.00 in 104 W/m2
17:35 65.2 °F 60.6 °F 30.24 in East 2 mph 2 mph 85% 0.00 in 90 W/m2
17:40 65.2 °F 60.6 °F 30.24 in East 2 mph 2 mph 85% 0.00 in 76 W/m2
17:45 65.2 °F 60.6 °F 30.24 in North 2 mph 3 mph 85% 0.00 in 65 W/m2
17:50 65.1 °F 60.5 °F 30.24 in NNE 2 mph 2 mph 85% 0.00 in 65 W/m2
17:55 65.1 °F 60.5 °F 30.24 in East 2 mph 3 mph 85% 0.00 in 60 W/m2
18:00 65 °F 60.7 °F 30.24 in NW 2 mph 2 mph 86% 0.00 in 67 W/m2
18:05 65 °F 60.7 °F 30.24 in East 2 mph 2 mph 86% 0.00 in 58 W/m2
18:10 65 °F 60.7 °F 30.24 in ENE 2 mph 2 mph 86% 0.00 in 46 W/m2
18:15 64.8 °F 60.5 °F 30.24 in NE 2 mph 2 mph 86% 0.00 in 37 W/m2
18:20 64.7 °F 60.4 °F 30.24 in ESE 2 mph 4 mph 86% 0.00 in 35 W/m2
18:25 64.7 °F 60.4 °F 30.24 in ENE 2 mph 4 mph 86% 0.00 in 32 W/m2
18:30 64.6 °F 60.3 °F 30.24 in NE 2 mph 2 mph 86% 0.00 in 23 W/m2
18:35 64.5 °F 60.2 °F 30.24 in East 2 mph 2 mph 86% 0.00 in 19 W/m2
18:40 64.5 °F 60.2 °F 30.24 in NNE 2 mph 2 mph 86% 0.00 in 12 W/m2
18:45 64.4 °F 60.1 °F 30.24 in NE 2 mph 2 mph 86% 0.00 in 9 W/m2
18:50 64.3 °F 60 °F 30.24 in ENE 2 mph 3 mph 86% 0.00 in 7 W/m2
18:55 64.3 °F 60 °F 30.24 in East 2 mph 3 mph 86% 0.00 in 5 W/m2
19:00 64.3 °F 60 °F 30.24 in NE 2 mph 5 mph 86% 0.00 in 0 W/m2
19:05 64.1 °F 59.8 °F 30.24 in ENE 3 mph 5 mph 86% 0.00 in 0 W/m2
19:10 64 °F 59.4 °F 30.24 in East 3 mph 3 mph 85% 0.00 in 0 W/m2
19:15 63.9 °F 59.3 °F 30.25 in NE 3 mph 3 mph 85% 0.00 in 0 W/m2
19:20 63.8 °F 59.2 °F 30.25 in East 3 mph 3 mph 85% 0.00 in 0 W/m2
19:25 63.7 °F 58.8 °F 30.25 in East 3 mph 3 mph 84% 0.00 in 0 W/m2
19:30 63.7 °F 58.8 °F 30.25 in East 3 mph 3 mph 84% 0.00 in 0 W/m2
19:35 63.7 °F 58.8 °F 30.25 in East 3 mph 3 mph 84% 0.00 in 0 W/m2
19:40 63.6 °F 58.3 °F 30.25 in NNE 3 mph 3 mph 83% 0.00 in 0 W/m2
19:45 63.6 °F 58.3 °F 30.25 in ENE 3 mph 3 mph 83% 0.00 in 0 W/m2
19:50 63.5 °F 58.2 °F 30.25 in SE 3 mph 3 mph 83% 0.00 in 0 W/m2
19:55 63.5 °F 58.2 °F 30.25 in ENE 3 mph 3 mph 83% 0.00 in 0 W/m2
20:00 63.5 °F 58.2 °F 30.25 in East 3 mph 3 mph 83% 0.00 in 0 W/m2
20:05 63.4 °F 58.1 °F 30.25 in ENE 3 mph 3 mph 83% 0.00 in 0 W/m2
20:10 63.4 °F 58.1 °F 30.25 in East 3 mph 3 mph 83% 0.00 in 0 W/m2
20:15 63.4 °F 58.1 °F 30.25 in ENE 3 mph 3 mph 83% 0.00 in 0 W/m2
20:20 63.3 °F 58 °F 30.25 in East 3 mph 6 mph 83% 0.00 in 0 W/m2
20:25 63.2 °F 57.6 °F 30.25 in ENE 3 mph 6 mph 82% 0.00 in 0 W/m2
20:30 63.2 °F 57.6 °F 30.25 in ESE 3 mph 3 mph 82% 0.00 in 0 W/m2
20:35 63.2 °F 57.6 °F 30.25 in NE 3 mph 4 mph 82% 0.00 in 0 W/m2
20:40 63.1 °F 57.5 °F 30.25 in ESE 2 mph 2 mph 82% 0.00 in 0 W/m2
20:45 63.1 °F 57.5 °F 30.25 in East 2 mph 4 mph 82% 0.00 in 0 W/m2
20:50 63 °F 57.4 °F 30.25 in East 3 mph 4 mph 82% 0.00 in 0 W/m2
20:55 62.8 °F 56.9 °F 30.25 in ENE 2 mph 4 mph 81% 0.00 in 0 W/m2
21:00 62.8 °F 56.9 °F 30.25 in SE 2 mph 4 mph 81% 0.00 in 0 W/m2
21:05 62.8 °F 57.2 °F 30.25 in East 2 mph 4 mph 82% 0.00 in 0 W/m2
21:10 62.8 °F 57.2 °F 30.26 in ENE 2 mph 2 mph 82% 0.00 in 0 W/m2
21:15 62.8 °F 57.6 °F 30.25 in ESE 2 mph 2 mph 83% 0.00 in 0 W/m2
21:20 62.9 °F 57.7 °F 30.25 in East 2 mph 3 mph 83% 0.00 in 0 W/m2
21:25 62.9 °F 57.7 °F 30.25 in ENE 2 mph 3 mph 83% 0.00 in 0 W/m2
21:30 62.8 °F 57.6 °F 30.25 in East 2 mph 2 mph 83% 0.00 in 0 W/m2
21:35 62.9 °F 57.7 °F 30.26 in East 2 mph 2 mph 83% 0.00 in 0 W/m2
21:40 62.9 °F 57.7 °F 30.26 in East 2 mph 2 mph 83% 0.00 in 0 W/m2
21:45 62.8 °F 57.6 °F 30.25 in ENE 2 mph 2 mph 83% 0.00 in 0 W/m2
21:50 62.8 °F 57.6 °F 30.25 in East 1 mph 1 mph 83% 0.00 in 0 W/m2
21:55 62.7 °F 57.5 °F 30.25 in East 1 mph 1 mph 83% 0.00 in 0 W/m2
22:00 62.7 °F 57.5 °F 30.25 in ENE 1 mph 1 mph 83% 0.00 in 0 W/m2
22:05 62.8 °F 57.6 °F 30.25 in East 1 mph 2 mph 83% 0.00 in 0 W/m2
22:10 62.7 °F 57.5 °F 30.25 in East 1 mph 2 mph 83% 0.00 in 0 W/m2
22:15 62.7 °F 57.5 °F 30.25 in East 1 mph 2 mph 83% 0.00 in 0 W/m2
22:20 62.7 °F 57.5 °F 30.25 in East 1 mph 1 mph 83% 0.00 in 0 W/m2
22:25 62.7 °F 57.5 °F 30.25 in East 1 mph 1 mph 83% 0.00 in 0 W/m2
22:30 62.7 °F 57.5 °F 30.25 in ENE 1 mph 3 mph 83% 0.00 in 0 W/m2
22:35 62.5 °F 57.3 °F 30.25 in North 2 mph 3 mph 83% 0.00 in 0 W/m2
22:40 62.5 °F 57.3 °F 30.25 in ENE 2 mph 2 mph 83% 0.00 in 0 W/m2
22:45 62.5 °F 57.3 °F 30.25 in East 1 mph 2 mph 83% 0.00 in 0 W/m2
22:50 62.5 °F 57.3 °F 30.24 in ENE 2 mph 2 mph 83% 0.00 in 0 W/m2
22:55 62.5 °F 57.3 °F 30.24 in ENE 2 mph 2 mph 83% 0.00 in 0 W/m2
23:00 62.5 °F 57.3 °F 30.24 in East 1 mph 1 mph 83% 0.00 in 0 W/m2
23:05 62.5 °F 57.3 °F 30.24 in NE 1 mph 1 mph 83% 0.00 in 0 W/m2
23:10 62.5 °F 57.3 °F 30.24 in East 1 mph 2 mph 83% 0.00 in 0 W/m2
23:15 62.4 °F 57.2 °F 30.24 in ENE 1 mph 2 mph 83% 0.00 in 0 W/m2
23:20 62.4 °F 57.2 °F 30.24 in SE 1 mph 1 mph 83% 0.00 in 0 W/m2
23:25 62.4 °F 57.2 °F 30.24 in ENE 1 mph 1 mph 83% 0.00 in 0 W/m2
23:30 62.4 °F 57.2 °F 30.24 in East 1 mph 2 mph 83% 0.00 in 0 W/m2
23:35 62.3 °F 57.4 °F 30.24 in NE 1 mph 2 mph 84% 0.00 in 0 W/m2
23:40 62.3 °F 57.4 °F 30.24 in East 1 mph 1 mph 84% 0.00 in 0 W/m2
23:45 62.3 °F 57.4 °F 30.24 in East 1 mph 1 mph 84% 0.00 in 0 W/m2
23:50 62.3 °F 57.4 °F 30.24 in East 1 mph 1 mph 84% 0.00 in 0 W/m2
23:55 62.4 °F 57.8 °F 30.24 in ESE 1 mph 1 mph 85% 0.00 in 0 W/m2
Sand Point, Michigan, USA
Compliments of Weather Underground - 2 mb